createdAt,value
2018-02-24T00:02:12.629Z,18.33
2018-02-24T00:04:40.088Z,15.30
2018-02-24T00:07:07.572Z,18.40
2018-02-24T00:09:35.037Z,19.23
2018-02-24T00:12:03.567Z,18.60
2018-02-24T00:14:31.038Z,18.10
2018-02-24T00:16:58.498Z,18.70
2018-02-24T00:19:25.936Z,18.13
2018-02-24T00:21:53.414Z,18.00
2018-02-24T00:24:20.867Z,20.03
2018-02-24T00:31:16.107Z,18.93
2018-02-24T00:33:43.571Z,19.30
2018-02-24T00:36:11.817Z,19.30
2018-02-24T00:38:39.308Z,18.93
2018-02-24T00:41:06.783Z,19.67
2018-02-24T00:43:35.042Z,20.63
2018-02-24T00:46:04.612Z,20.03
2018-02-24T00:48:45.780Z,19.17
2018-02-24T00:51:13.287Z,19.83
2018-02-24T00:53:41.594Z,18.97
2018-02-24T00:56:09.086Z,19.57
2018-02-24T00:58:36.544Z,20.90
2018-02-24T01:01:04.157Z,21.10
2018-02-24T01:08:14.730Z,18.63
2018-02-24T01:10:45.618Z,21.67
2018-02-24T01:13:13.091Z,20.13
2018-02-24T01:15:40.573Z,21.57
2018-02-24T01:18:08.028Z,19.37
2018-02-24T01:20:35.518Z,19.87
2018-02-24T01:23:02.977Z,18.30
2018-02-24T01:25:30.465Z,22.00
2018-02-24T01:27:57.923Z,21.80
2018-02-24T01:30:25.397Z,21.50
2018-02-24T01:32:52.862Z,20.37
2018-02-24T01:35:20.354Z,20.30
2018-02-24T01:37:47.813Z,20.33
2018-02-24T01:40:16.211Z,21.30
2018-02-24T01:42:43.684Z,19.63
2018-02-24T01:45:11.157Z,20.00
2018-02-24T01:47:38.612Z,20.73
2018-02-24T01:50:06.098Z,20.33
2018-02-24T01:52:33.541Z,18.23
2018-02-24T01:55:00.994Z,20.23
2018-02-24T01:57:28.529Z,18.17
2018-02-24T01:59:56.773Z,19.67
2018-02-24T02:02:25.254Z,20.27
2018-02-24T02:04:52.728Z,19.70
2018-02-24T02:07:20.181Z,17.70
2018-02-24T02:09:47.669Z,19.23
2018-02-24T02:12:15.165Z,20.67
2018-02-24T02:14:42.641Z,17.00
2018-02-24T02:17:10.101Z,20.17
2018-02-24T02:19:45.616Z,19.20
2018-02-24T02:22:15.524Z,19.43
2018-02-24T02:24:46.453Z,18.30
2018-02-24T02:30:15.897Z,20.50
2018-02-24T02:35:24.617Z,18.10
2018-02-24T02:37:52.079Z,19.40
2018-02-24T02:40:20.325Z,19.70
2018-02-24T02:42:47.784Z,20.10
2018-02-24T02:45:15.261Z,19.60
2018-02-24T02:47:42.716Z,20.80
2018-02-24T02:50:10.184Z,20.03
2018-02-24T02:52:37.641Z,18.33
2018-02-24T02:55:05.115Z,20.80
2018-02-24T02:57:32.572Z,18.93
2018-02-24T03:00:01.817Z,18.67
2018-02-24T03:02:29.280Z,19.40
2018-02-24T03:04:56.729Z,20.73
2018-02-24T03:07:24.206Z,17.20
2018-02-24T03:09:51.685Z,19.80
2018-02-24T03:12:19.136Z,19.80
2018-02-24T03:14:47.452Z,18.47
2018-02-24T03:17:15.013Z,19.00
2018-02-24T03:19:42.393Z,20.33
2018-02-24T03:22:09.890Z,19.03
2018-02-24T03:24:37.345Z,20.57
2018-02-24T03:27:04.817Z,17.00
2018-02-24T03:29:32.279Z,18.37
2018-02-24T03:31:59.769Z,18.90
2018-02-24T03:34:27.985Z,18.40
2018-02-24T03:36:55.460Z,19.07
2018-02-24T03:39:22.918Z,18.40
2018-02-24T03:41:50.397Z,19.77
2018-02-24T03:44:17.853Z,18.23
2018-02-24T03:46:45.341Z,20.23
2018-02-24T03:49:12.793Z,18.47
2018-02-24T03:51:40.279Z,17.63
2018-02-24T03:54:07.717Z,20.40
2018-02-24T03:56:35.205Z,16.03
2018-02-24T03:59:02.658Z,20.20
2018-02-24T04:01:30.156Z,20.43
2018-02-24T04:03:57.616Z,19.77
2018-02-24T04:06:25.093Z,20.17
2018-02-24T04:08:52.538Z,20.87
2018-02-24T04:11:20.025Z,20.10
2018-02-24T04:13:47.485Z,20.83
2018-02-24T04:16:14.969Z,18.83
2018-02-24T04:18:42.417Z,18.80
2018-02-24T04:21:09.896Z,20.13
2018-02-24T04:23:37.345Z,18.80
2018-02-24T04:26:04.823Z,18.80
2018-02-24T04:28:32.281Z,18.60
2018-02-24T04:30:59.752Z,19.50
2018-02-24T04:33:31.015Z,18.90
2018-02-24T04:35:58.493Z,18.63
2018-02-24T04:38:26.097Z,19.77
2018-02-24T04:40:53.572Z,17.03
2018-02-24T04:43:21.021Z,18.80
2018-02-24T04:45:48.504Z,10.87
2018-02-24T04:48:15.945Z,19.20
2018-02-24T04:50:43.425Z,17.67
2018-02-24T04:53:10.881Z,16.90
2018-02-24T04:55:38.357Z,18.40
2018-02-24T04:58:05.813Z,19.83
2018-02-24T05:00:34.067Z,19.10
2018-02-24T05:03:01.513Z,17.73
2018-02-24T05:05:28.999Z,18.93
2018-02-24T05:07:56.447Z,15.90
2018-02-24T05:10:23.926Z,17.57
2018-02-24T05:12:51.812Z,18.60
2018-02-24T05:15:19.294Z,19.20
2018-02-24T05:17:46.749Z,10.70
2018-02-24T05:20:14.226Z,17.70
2018-02-24T05:22:41.671Z,18.93
2018-02-24T05:25:09.237Z,17.00
2018-02-24T05:27:36.721Z,17.97
2018-02-24T05:30:04.205Z,13.33
2018-02-24T05:32:31.654Z,18.60
2018-02-24T05:34:59.128Z,19.13
2018-02-24T05:37:26.573Z,19.97
2018-02-24T05:39:54.830Z,18.13
2018-02-24T05:42:22.278Z,19.27
2018-02-24T05:44:49.761Z,17.97
2018-02-24T05:47:17.209Z,17.03
2018-02-24T05:49:47.109Z,19.57
2018-02-24T05:52:14.597Z,17.90
2018-02-24T05:54:47.231Z,16.93
2018-02-24T05:57:14.730Z,17.57
2018-02-24T05:59:42.974Z,19.10
2018-02-24T06:02:15.707Z,17.60
2018-02-24T06:04:44.553Z,16.70
2018-02-24T06:07:15.506Z,16.73
2018-02-24T06:12:27.271Z,17.90
2018-02-24T06:14:57.355Z,17.33
2018-02-24T06:17:37.167Z,17.13
2018-02-24T06:20:04.648Z,17.13
2018-02-24T06:22:33.579Z,15.77
2018-02-24T06:25:03.287Z,17.50
2018-02-24T06:27:45.749Z,17.10
2018-02-24T06:30:13.317Z,14.33
2018-02-24T06:35:54.475Z,17.50
2018-02-24T06:38:36.066Z,16.83
2018-02-24T06:46:52.103Z,15.97
2018-02-24T06:49:20.251Z,18.10
2018-02-24T06:51:47.842Z,16.87
2018-02-24T06:54:15.466Z,17.43
2018-02-24T06:56:43.926Z,18.37
2018-02-24T06:59:12.264Z,18.50
2018-02-24T07:01:39.828Z,18.40
2018-02-24T07:04:07.414Z,19.47
2018-02-24T07:06:34.940Z,18.57
2018-02-24T07:09:02.581Z,20.37
2018-02-24T07:11:30.140Z,19.70
2018-02-24T07:13:57.664Z,17.97
2018-02-24T07:16:25.995Z,19.33
2018-02-24T07:18:53.566Z,18.87
2018-02-24T07:21:21.160Z,18.60
2018-02-24T07:23:48.712Z,20.17
2018-02-24T07:26:16.357Z,19.90
2018-02-24T07:28:43.945Z,19.73
2018-02-24T07:31:11.483Z,19.67
2018-02-24T07:33:39.078Z,19.97
2018-02-24T07:36:06.670Z,21.33
2018-02-24T07:38:34.227Z,18.20
2018-02-24T07:41:01.829Z,19.43
2018-02-24T07:43:29.384Z,20.37
2018-02-24T07:45:56.967Z,20.00
2018-02-24T07:48:25.296Z,20.43
2018-02-24T07:50:52.997Z,21.40
2018-02-24T07:53:20.567Z,20.33
2018-02-24T07:55:48.169Z,22.77
2018-02-24T07:58:15.722Z,20.53
2018-02-24T08:00:45.068Z,20.57
2018-02-24T08:03:12.634Z,21.03
2018-02-24T08:05:40.244Z,21.80
2018-02-24T08:08:08.574Z,20.20
2018-02-24T08:10:36.181Z,20.60
2018-02-24T08:13:03.749Z,17.87
2018-02-24T08:15:31.317Z,19.97
2018-02-24T08:17:58.850Z,17.43
2018-02-24T08:20:26.510Z,18.57
2018-02-24T08:22:56.336Z,18.60
2018-02-24T08:25:23.866Z,18.57
2018-02-24T08:27:51.389Z,17.47
2018-02-24T08:30:18.946Z,19.17
2018-02-24T08:32:46.437Z,13.13
2018-02-24T08:35:13.933Z,15.73
2018-02-24T08:37:42.157Z,17.33
2018-02-24T08:40:09.657Z,15.20
2018-02-24T08:42:37.116Z,14.43
2018-02-24T08:45:04.612Z,15.03
2018-02-24T08:47:32.073Z,14.40
2018-02-24T08:49:59.562Z,13.27
2018-02-24T08:52:27.827Z,14.37
2018-02-24T08:54:55.313Z,14.27
2018-02-24T08:57:22.772Z,14.47
2018-02-24T08:59:50.272Z,17.43
2018-02-24T09:02:18.497Z,19.50
2018-02-24T09:04:46.076Z,17.87
2018-02-24T09:07:13.540Z,16.30
2018-02-24T09:09:41.036Z,16.90
2018-02-24T09:12:08.501Z,15.03
2018-02-24T09:14:35.993Z,12.90
2018-02-24T09:17:03.453Z,15.43
2018-02-24T09:19:30.949Z,14.53
2018-02-24T09:21:59.179Z,14.93
2018-02-24T09:24:26.669Z,14.10
2018-02-24T09:26:54.145Z,11.80
2018-02-24T09:29:21.652Z,15.87
2018-02-24T09:31:49.117Z,16.83
2018-02-24T09:34:16.621Z,15.00
2018-02-24T09:36:44.085Z,15.80
2018-02-24T09:39:11.573Z,15.60
2018-02-24T09:41:39.045Z,14.70
2018-02-24T09:44:06.537Z,14.67
2018-02-24T09:46:34.001Z,14.83
2018-02-24T09:49:01.495Z,14.47
2018-02-24T09:51:29.192Z,14.93
2018-02-24T09:53:56.673Z,13.87
2018-02-24T09:56:24.896Z,12.00
2018-02-24T09:58:52.389Z,13.07
2018-02-24T10:01:19.848Z,13.80
2018-02-24T10:03:47.343Z,15.20
2018-02-24T10:06:14.804Z,13.10
2018-02-24T10:08:42.349Z,15.80
2018-02-24T10:11:09.756Z,14.27
2018-02-24T10:13:37.246Z,15.63
2018-02-24T10:16:04.709Z,14.17
2018-02-24T10:18:32.193Z,15.33
2018-02-24T10:20:59.653Z,14.60
2018-02-24T10:23:27.170Z,14.13
2018-02-24T10:25:54.634Z,14.73
2018-02-24T10:28:22.128Z,12.00
2018-02-24T10:30:49.615Z,14.70
2018-02-24T10:33:17.929Z,14.03
2018-02-24T10:35:45.392Z,15.60
2018-02-24T10:38:12.894Z,12.50
2018-02-24T10:40:40.345Z,15.90
2018-02-24T10:43:07.832Z,16.33
2018-02-24T10:45:36.064Z,15.70
2018-02-24T10:48:03.550Z,16.57
2018-02-24T10:50:31.006Z,14.60
2018-02-24T10:52:58.485Z,14.43
2018-02-24T10:55:25.964Z,15.97
2018-02-24T10:57:53.441Z,9.80
2018-02-24T11:00:20.900Z,13.63
2018-02-24T11:02:48.386Z,14.33
2018-02-24T11:05:15.841Z,14.70
2018-02-24T11:07:44.098Z,12.67
2018-02-24T11:10:11.560Z,13.67
2018-02-24T11:12:39.808Z,13.90
2018-02-24T11:15:07.265Z,14.80
2018-02-24T11:17:34.752Z,14.10
2018-02-24T11:20:02.208Z,13.23
2018-02-24T11:22:30.616Z,13.10
2018-02-24T11:24:58.259Z,14.13
2018-02-24T11:27:25.745Z,14.73
2018-02-24T11:29:53.201Z,13.87
2018-02-24T11:32:20.705Z,14.37
2018-02-24T11:34:48.160Z,13.73
2018-02-24T11:37:15.673Z,13.30
2018-02-24T11:39:43.901Z,12.40
2018-02-24T11:42:11.389Z,14.17
2018-02-24T11:44:38.885Z,14.40
2018-02-24T11:47:06.348Z,14.63
2018-02-24T11:49:34.012Z,14.00
2018-02-24T11:52:01.485Z,12.20
2018-02-24T11:54:28.973Z,13.07
2018-02-24T11:56:56.441Z,11.57
2018-02-24T11:59:23.929Z,11.30
2018-02-24T12:01:51.387Z,13.97
2018-02-24T12:04:18.876Z,11.50
2018-02-24T12:06:46.402Z,12.50
2018-02-24T12:09:13.865Z,12.03
2018-02-24T12:11:41.340Z,11.80
2018-02-24T12:14:08.824Z,12.67
2018-02-24T12:16:36.272Z,11.60
2018-02-24T12:19:03.765Z,12.17
2018-02-24T12:21:31.990Z,11.73
2018-02-24T12:24:00.242Z,10.87
2018-02-24T12:26:27.697Z,10.10
2018-02-24T12:28:55.189Z,8.67
2018-02-24T12:31:22.650Z,10.20
2018-02-24T12:33:50.132Z,9.60
2018-02-24T12:36:17.589Z,9.57
2018-02-24T12:38:45.089Z,11.50
2018-02-24T12:41:12.550Z,10.90
2018-02-24T12:43:40.061Z,8.97
2018-02-24T12:46:07.489Z,11.13
2018-02-24T12:48:34.978Z,9.40
2018-02-24T12:51:02.434Z,11.30
2018-02-24T12:53:29.920Z,10.23
2018-02-24T12:55:57.388Z,8.80
2018-02-24T12:58:24.865Z,9.97
2018-02-24T13:00:52.345Z,10.50
2018-02-24T13:03:20.619Z,10.47
2018-02-24T13:05:48.177Z,9.53
2018-02-24T13:08:15.661Z,9.70
2018-02-24T13:10:43.120Z,7.67
2018-02-24T13:13:10.600Z,9.00
2018-02-24T13:15:38.058Z,7.33
2018-02-24T13:18:05.538Z,9.73
2018-02-24T13:20:33.006Z,9.97
2018-02-24T13:23:00.493Z,7.20
2018-02-24T13:25:28.013Z,8.20
2018-02-24T13:27:55.448Z,8.60
2018-02-24T13:30:23.690Z,8.97
2018-02-24T13:32:51.161Z,7.40
2018-02-24T13:35:18.626Z,8.57
2018-02-24T13:37:46.159Z,8.20
2018-02-24T13:40:14.381Z,8.33
2018-02-24T13:42:41.901Z,8.07
2018-02-24T13:45:09.368Z,8.10
2018-02-24T13:47:36.849Z,7.17
2018-02-24T13:50:05.072Z,7.57
2018-02-24T13:52:32.553Z,7.73
2018-02-24T13:55:00.015Z,7.60
2018-02-24T13:57:27.497Z,9.43
2018-02-24T13:59:54.957Z,8.30
2018-02-24T14:02:22.441Z,8.93
2018-02-24T14:04:49.912Z,9.90
2018-02-24T14:07:17.404Z,8.30
2018-02-24T14:09:44.869Z,8.10
2018-02-24T14:12:12.344Z,7.43
2018-02-24T14:14:39.789Z,7.80
2018-02-24T14:17:07.281Z,7.70
2018-02-24T14:19:34.741Z,5.40
2018-02-24T14:22:02.221Z,7.93
2018-02-24T14:24:29.696Z,7.97
2018-02-24T14:26:57.181Z,7.73
2018-02-24T14:29:24.646Z,6.60
2018-02-24T14:31:52.140Z,5.83
2018-02-24T14:34:19.701Z,6.80
2018-02-24T14:36:47.183Z,6.50
2018-02-24T14:39:14.644Z,7.90
2018-02-24T14:41:42.123Z,6.67
2018-02-24T14:44:09.573Z,6.93
2018-02-24T14:46:37.026Z,7.77
2018-02-24T14:49:04.541Z,7.70
2018-02-24T14:51:32.770Z,6.73
2018-02-24T14:54:00.277Z,7.07
2018-02-24T14:56:27.752Z,6.57
2018-02-24T14:58:55.241Z,5.97
2018-02-24T15:01:22.691Z,6.63
2018-02-24T15:03:50.173Z,6.13
2018-02-24T15:06:17.631Z,6.30
2018-02-24T15:08:45.131Z,6.17
2018-02-24T15:11:13.353Z,3.93
2018-02-24T15:13:40.843Z,5.40
2018-02-24T15:16:08.301Z,5.70
2018-02-24T15:18:35.780Z,4.03
2018-02-24T15:21:03.236Z,6.73
2018-02-24T15:23:30.713Z,3.30
2018-02-24T15:25:58.169Z,6.40
2018-02-24T15:28:25.656Z,7.07
2018-02-24T15:30:53.108Z,4.90
2018-02-24T15:33:20.600Z,6.80
2018-02-24T15:35:48.067Z,4.60
2018-02-24T15:38:15.558Z,5.67
2018-02-24T15:40:43.009Z,5.43
2018-02-24T15:43:10.488Z,5.90
2018-02-24T15:45:37.959Z,6.40
2018-02-24T15:48:05.441Z,5.43
2018-02-24T15:50:32.895Z,6.53
2018-02-24T15:53:00.381Z,6.37
2018-02-24T15:55:27.833Z,5.33
2018-02-24T15:57:55.323Z,7.00
2018-02-24T16:00:22.780Z,5.73
2018-02-24T16:02:50.264Z,7.23
2018-02-24T16:05:17.721Z,5.50
2018-02-24T16:07:45.217Z,6.00
2018-02-24T16:10:12.669Z,6.23
2018-02-24T16:12:42.086Z,6.47
2018-02-24T16:15:09.561Z,6.37
2018-02-24T16:17:37.041Z,6.47
2018-02-24T16:20:04.551Z,6.43
2018-02-24T16:22:32.802Z,5.90
2018-02-24T16:25:00.289Z,5.00
2018-02-24T16:27:28.538Z,5.00
2018-02-24T16:29:56.000Z,5.60
2018-02-24T16:32:23.477Z,4.93
2018-02-24T16:34:50.929Z,6.47
2018-02-24T16:37:19.178Z,4.37
2018-02-24T16:39:46.636Z,6.77
2018-02-24T16:42:14.116Z,6.63
2018-02-24T16:44:41.572Z,5.23
2018-02-24T16:47:09.062Z,7.90
2018-02-24T16:49:36.520Z,5.60
2018-02-24T16:52:04.004Z,7.30
2018-02-24T16:54:31.462Z,7.57
2018-02-24T16:56:59.280Z,7.23
2018-02-24T16:59:27.500Z,7.50
2018-02-24T17:01:54.985Z,9.07
2018-02-24T17:04:22.452Z,7.97
2018-02-24T17:06:49.925Z,7.40
2018-02-24T17:09:17.385Z,7.67
2018-02-24T17:11:44.885Z,7.70
2018-02-24T17:14:12.376Z,8.87
2018-02-24T17:16:39.806Z,7.20
2018-02-24T17:19:07.289Z,8.70
2018-02-24T17:21:34.757Z,7.53
2018-02-24T17:24:02.250Z,8.30
2018-02-24T17:26:29.732Z,8.40
2018-02-24T17:28:57.197Z,8.00
2018-02-24T17:31:24.682Z,7.90
2018-02-24T17:33:52.133Z,7.80
2018-02-24T17:36:19.598Z,8.23
2018-02-24T17:38:47.095Z,7.23
2018-02-24T17:41:14.557Z,8.40
2018-02-24T17:43:42.896Z,7.40
2018-02-24T17:46:10.383Z,8.13
2018-02-24T17:48:38.626Z,7.80
2018-02-24T17:51:06.853Z,7.07
2018-02-24T17:53:34.326Z,7.60
2018-02-24T17:56:01.857Z,4.90
2018-02-24T17:58:30.078Z,7.27
2018-02-24T18:00:57.557Z,4.93
2018-02-24T18:03:25.033Z,7.23
2018-02-24T18:05:52.567Z,7.23
2018-02-24T18:08:20.788Z,6.10
2018-02-24T18:10:49.133Z,6.17
2018-02-24T18:13:16.589Z,8.00
2018-02-24T18:15:44.073Z,6.30
2018-02-24T18:18:11.530Z,7.83
2018-02-24T18:20:39.009Z,8.03
2018-02-24T18:23:06.472Z,6.13
2018-02-24T18:25:33.964Z,7.70
2018-02-24T18:28:02.182Z,6.70
2018-02-24T18:30:29.633Z,7.33
2018-02-24T18:32:57.881Z,7.30
2018-02-24T18:35:25.337Z,7.63
2018-02-24T18:37:52.818Z,7.97
2018-02-24T18:40:20.273Z,6.87
2018-02-24T18:42:47.753Z,6.57
2018-02-24T18:45:15.218Z,7.77
2018-02-24T18:47:42.705Z,3.03
2018-02-24T18:50:10.158Z,7.27
2018-02-24T18:52:37.637Z,6.20
2018-02-24T18:55:05.104Z,7.93
2018-02-24T18:57:32.568Z,2.60
2018-02-24T19:00:00.197Z,4.20
2018-02-24T19:02:28.451Z,6.23
2018-02-24T19:04:55.901Z,8.43
2018-02-24T19:07:23.389Z,6.60
2018-02-24T19:09:50.840Z,6.23
2018-02-24T19:12:18.772Z,8.07
2018-02-24T19:14:46.277Z,7.43
2018-02-24T19:17:13.757Z,8.60
2018-02-24T19:19:41.261Z,7.10
2018-02-24T19:22:08.705Z,6.90
2018-02-24T19:24:36.173Z,9.00
2018-02-24T19:27:03.655Z,7.13
2018-02-24T19:29:31.112Z,6.50
2018-02-24T19:31:58.598Z,7.73
2018-02-24T19:34:26.053Z,6.20
2018-02-24T19:36:53.645Z,6.60
2018-02-24T19:39:21.106Z,5.40
2018-02-24T19:41:48.609Z,7.57
2018-02-24T19:44:16.074Z,7.17
2018-02-24T19:46:44.441Z,7.70
2018-02-24T19:49:11.892Z,8.60
2018-02-24T19:51:39.373Z,7.17
2018-02-24T19:54:06.824Z,6.27
2018-02-24T19:56:35.100Z,6.73
2018-02-24T19:59:03.323Z,7.10
2018-02-24T20:01:30.810Z,7.70
2018-02-24T20:03:58.271Z,7.37
2018-02-24T20:06:26.159Z,8.53
2018-02-24T20:08:54.265Z,3.83
2018-02-24T20:14:19.586Z,6.40
2018-02-24T20:16:47.882Z,8.67
2018-02-24T20:19:15.403Z,9.33
2018-02-24T20:21:42.973Z,8.53
2018-02-24T20:24:10.657Z,9.50
2018-02-24T20:26:38.167Z,8.53
2018-02-24T20:29:08.395Z,4.17
2018-02-24T20:31:38.310Z,7.53
2018-02-24T20:34:21.758Z,3.70
2018-02-24T20:36:50.002Z,7.27
2018-02-24T20:39:18.334Z,6.73
2018-02-24T20:41:46.918Z,7.30
2018-02-24T20:44:15.914Z,8.13
2018-02-24T20:46:43.440Z,6.00
2018-02-24T20:49:11.564Z,5.53
2018-02-24T20:51:39.195Z,7.73
2018-02-24T20:54:06.749Z,7.47
2018-02-24T20:56:34.268Z,4.20
2018-02-24T20:59:01.746Z,7.20
2018-02-24T21:01:29.220Z,7.80
2018-02-24T21:03:56.885Z,7.13
2018-02-24T21:06:24.514Z,5.90
2018-02-24T21:08:51.961Z,7.90
2018-02-24T21:11:19.446Z,4.70
2018-02-24T21:13:47.669Z,8.40
2018-02-24T21:19:10.128Z,5.93
2018-02-24T21:21:38.346Z,7.43
2018-02-24T21:24:05.853Z,9.30
2018-02-24T21:26:33.306Z,8.90
2018-02-24T21:29:00.758Z,8.53
2018-02-24T21:31:28.274Z,8.10
2018-02-24T21:33:55.738Z,70.10
2018-02-24T21:36:23.222Z,9.30
2018-02-24T21:38:50.680Z,8.03
2018-02-24T21:41:18.162Z,6.87
2018-02-24T21:43:45.634Z,7.60
2018-02-24T21:46:13.945Z,8.57
2018-02-24T21:51:28.041Z,7.93
2018-02-24T21:54:14.046Z,6.20
2018-02-24T21:56:41.575Z,8.13
2018-02-24T21:59:09.038Z,4.23
2018-02-24T22:01:36.529Z,8.03
2018-02-24T22:04:04.077Z,7.83
2018-02-24T22:06:31.568Z,7.80
2018-02-24T22:08:59.033Z,7.30
2018-02-24T22:11:26.522Z,8.80
2018-02-24T22:13:53.987Z,8.53
2018-02-24T22:16:21.495Z,8.00
2018-02-24T22:18:49.500Z,8.17
2018-02-24T22:21:16.988Z,8.27
2018-02-24T22:23:44.505Z,8.00
2018-02-24T22:26:11.962Z,7.90
2018-02-24T22:28:39.461Z,6.73
2018-02-24T22:31:07.693Z,8.83
2018-02-24T22:33:35.181Z,8.30
2018-02-24T22:36:02.657Z,8.60
2018-02-24T22:38:30.166Z,7.77
2018-02-24T22:40:57.659Z,29.93
2018-02-24T22:43:25.162Z,9.80
2018-02-24T22:45:52.630Z,10.70
2018-02-24T22:48:25.860Z,6.20
2018-02-24T22:50:53.325Z,8.13
2018-02-24T22:53:20.807Z,7.27
2018-02-24T22:55:49.037Z,8.23
2018-02-24T22:58:16.526Z,9.97
2018-02-24T23:00:44.009Z,9.50
2018-02-24T23:03:11.529Z,8.13
2018-02-24T23:05:38.984Z,8.40
2018-02-24T23:08:06.481Z,7.80
2018-02-24T23:10:35.096Z,8.30
2018-02-24T23:13:02.589Z,17.17
2018-02-24T23:15:30.093Z,44.60
2018-02-24T23:20:35.732Z,6.20
2018-02-24T23:23:04.137Z,8.40
2018-02-24T23:25:31.601Z,8.73
2018-02-24T23:28:05.671Z,9.53
2018-02-24T23:30:53.328Z,9.87
2018-02-24T23:34:58.680Z,7.67
2018-02-24T23:37:26.189Z,8.63
2018-02-24T23:39:54.460Z,8.23
2018-02-24T23:45:25.143Z,3.50
2018-02-24T23:47:52.633Z,8.20
2018-02-24T23:50:21.029Z,8.60
2018-02-24T23:52:49.273Z,8.80
2018-02-24T23:55:16.725Z,8.23
2018-02-24T23:57:44.202Z,6.43
